Etihad Airways Virtual Airport Information Service

Abu Dhabi International Airport

ICAO: OMAA Country: United Arab Emirates
Latitude: 24.433 Longitude: 54.6511
Latest Arrival : ETD289 (1) (VAAH-OMAA) Latest Departure : ETD288 (2) (OMAA-VAAH)


WX CaptureLIVE
Data provided by noaa.gov | Recorded at 08:47:54

METAR : OMAA 150800Z 33010KT CAVOK 35/14 Q1010 NOSIG

TAF : OMAA 150500Z 1506/1612 32008KT CAVOK TEMPO 1509/1514 33015KT PROB30 1600/1604 24005KT 4000 HZ BECMG 1607/1609 31015KT


Runway Data for OMAA
Data provided by openaviationdata.com

Runway ID Mag Var Hdg Length Elevation Surface ILS Freq ILS Id ILS Slope

Abu Dhabi International Airport, United Arab Emirates
Use only for reference purposes